Terry, MT

5:43 AM MDT on August 29, 2014 (GMT -0600)
Dawson Community | Change Station
CLOSE
Current Station
Airport
Location: Glendive,
Elevation: 2457 ft
Nearby Weather Stations

Elev 2457 ft 47.14 °N, 104.81 °W | Updated 8 minutes ago

Overcast
Overcast
59 °F
Feels Like 59 °F
N
15
Wind Variable Wind from NNW
Gusts 20 mph

Today
High -- | Low -- °F
--% Chance of Precip.
Yesterday
High -- | Low -- °F
Precip. -- in
6:17 AM 7:46 PM
Waxing Crescent, 14% visible
Pressure 29.97 in
Visibility 10.0 miles
Clouds Few 3600 ft
Scattered Clouds 5500 ft
Overcast 7500 ft
Dew Point 55 °F
Humidity 88%
Rainfall 0.04 in
Snow Depth Not available.
UV 0 out of 12
Pollen 8.70 out of 12
Air Quality Not available.
Flu Activity Not available.
METAR KGDV 291135Z AUTO 33013G17KT 10SM FEW036 SCT055 OVC075 15/13 A2997 RMK AO1 P0002

More Conditions Fewer Conditions

Pressure 29.97 in
Visibility 10.0 miles
Clouds Few 3600 ft
Scattered Clouds 5500 ft
Overcast 7500 ft
Dew Point 55 °F
Humidity 88%
Rainfall 0.04 in
Snow Depth Not available.
UV 0 out of 12
Pollen 8.70 out of 12
Air Quality Not available.
Flu Activity Not available.
METAR KGDV 291135Z AUTO 33013G17KT 10SM FEW036 SCT055 OVC075 15/13 A2997 RMK AO1 P0002

More Conditions Fewer Conditions

10-Day Weather Forecast

Almanac

Astronomy

Aug. 29, 2014 Rise Set
Actual Time 6:17 AM MDT 7:46 PM MDT
Civil Twilight 5:45 AM MDT 8:17 PM MDT
Nautical Twilight 5:06 AM MDT 8:56 PM MDT
Astronomical Twilight 4:25 AM MDT 9:37 PM MDT
Moon 10:26 AM MDT 9:27 PM MDT
Length of Visible Light 14h 32m
Length of Day
13h 29m
Tomorrow will be 3m 11s shorter.
Waxing Crescent, 14% of the Moon is Illuminated
Today
Waxing Crescent
Sep 2
First Quarter
Sep 8
Full
Sep 15
Last Quarter
Sep 24
New

Today's Extremes

State Highs State Lows

Community

WunderPhotos

Upload Photos

1,748,216 photos uploaded!

Nearby

Snow Depth

Station Depth Elevation
Crystal Lake 1 in 6050 ft
Cole Creek 0 in 7850 ft
Burnt Mountain 0 in 5880 ft
Daisy Peak 0 in 7600 ft
Placer Basin 0 in 8830 ft

Earthquake Activity

City Distance Mag. Time & Date
No recent earthquake activity has been reported nearby.
Minimum magnitude displayed is 2.5.

Coastal Water Temperatures

Place Temperature
No Stations Reporting

Nearby Weather Stations